Time;durP1;ratioP1;P1;durP2;ratioP2;P2;SDS_P1;SDS_P2;PMS_P1;PMS_P2;Temp;Humidity;BMP_temperature;BMP_pressure;BME280_temperature;BME280_humidity;BME280_pressure;Samples;Min_cycle;Max_cycle;Signal;HPM_P1;HPM_P2
2023/11/18 00:00:21;;;;;;;0.80;0.80;;;6.10;99.90;;;;;;5036254;28;20048;-77
2023/11/18 00:02:47;;;;;;;0.98;0.90;;;6.00;99.90;;;;;;5037435;28;20026;-76
2023/11/18 00:05:16;;;;;;;2.08;1.13;;;6.10;99.90;;;;;;5038797;28;20034;-74
2023/11/18 00:07:42;;;;;;;1.73;1.63;;;6.00;99.90;;;;;;5040855;28;20060;-76
2023/11/18 00:10:09;;;;;;;1.05;1.02;;;6.00;99.90;;;;;;5038127;28;20045;-76
2023/11/18 00:12:39;;;;;;;0.45;0.45;;;6.00;99.90;;;;;;5035602;28;20052;-77
2023/11/18 00:15:08;;;;;;;1.67;1.58;;;6.00;99.90;;;;;;5037488;28;20025;-76
2023/11/18 00:17:34;;;;;;;0.10;0.10;;;6.00;99.90;;;;;;5037755;28;20355;-76
2023/11/18 00:20:00;;;;;;;0.75;0.75;;;5.90;99.90;;;;;;5022425;28;20037;-76
2023/11/18 00:22:27;;;;;;;0.85;0.85;;;5.90;99.90;;;;;;5035075;28;20033;-76
2023/11/18 00:24:55;;;;;;;3.22;1.20;;;5.80;99.90;;;;;;5042704;28;20363;-76
2023/11/18 00:27:22;;;;;;;3.80;1.10;;;5.80;99.90;;;;;;5042650;28;20038;-76
2023/11/18 00:29:49;;;;;;;2.97;1.15;;;5.70;99.90;;;;;;5032087;28;20045;-76
2023/11/18 00:32:16;;;;;;;2.10;1.23;;;5.70;99.90;;;;;;5037693;28;20038;-77
2023/11/18 00:34:42;;;;;;;0.88;0.82;;;5.70;99.90;;;;;;5008156;28;20580;-76
2023/11/18 00:37:09;;;;;;;0.68;0.68;;;5.60;99.90;;;;;;5046816;28;20041;-76
2023/11/18 00:39:37;;;;;;;0.50;0.50;;;5.60;99.90;;;;;;5030221;28;20041;-76
2023/11/18 00:42:03;;;;;;;2.38;1.00;;;5.60;99.90;;;;;;5026011;28;20049;-76
2023/11/18 00:44:29;;;;;;;3.15;1.75;;;5.60;99.90;;;;;;5041951;28;20045;-75
2023/11/18 00:46:57;;;;;;;0.98;0.88;;;5.60;99.90;;;;;;5043628;28;20040;-75
2023/11/18 00:49:25;;;;;;;3.63;1.58;;;5.50;99.90;;;;;;5008646;28;20037;-79
2023/11/18 00:51:52;;;;;;;1.13;1.08;;;5.50;99.90;;;;;;5040603;28;20033;-75
2023/11/18 00:54:18;;;;;;;0.45;0.45;;;5.50;99.90;;;;;;5036841;28;20387;-75
2023/11/18 00:56:44;;;;;;;2.88;1.08;;;5.50;99.90;;;;;;5045455;28;20049;-75
2023/11/18 00:59:10;;;;;;;1.23;1.13;;;5.50;99.90;;;;;;5046634;28;20482;-75
2023/11/18 01:01:37;;;;;;;3.45;1.38;;;5.50;99.90;;;;;;5041449;28;20037;-75
2023/11/18 01:04:03;;;;;;;1.85;1.75;;;5.50;99.90;;;;;;5037118;28;20041;-75
2023/11/18 01:06:31;;;;;;;1.00;0.45;;;5.50;99.90;;;;;;5025263;28;20060;-74
2023/11/18 01:08:57;;;;;;;1.58;1.15;;;5.40;99.90;;;;;;5036563;28;20052;-75
2023/11/18 01:11:24;;;;;;;0.38;0.38;;;5.40;99.90;;;;;;5038902;28;20048;-75
2023/11/18 01:13:50;;;;;;;0.80;0.80;;;5.30;99.90;;;;;;5039134;28;20033;-75
2023/11/18 01:16:17;;;;;;;1.17;1.00;;;5.20;99.90;;;;;;5020962;28;20519;-74
2023/11/18 01:18:43;;;;;;;1.55;1.45;;;5.20;99.90;;;;;;5041641;28;20034;-74
2023/11/18 01:21:09;;;;;;;1.15;1.13;;;5.10;99.90;;;;;;5021714;28;20402;-73
2023/11/18 01:23:36;;;;;;;0.98;0.98;;;5.00;99.90;;;;;;5037115;28;20037;-76
2023/11/18 01:26:04;;;;;;;1.38;1.27;;;5.00;99.90;;;;;;5035810;28;20025;-76
2023/11/18 01:28:39;;;;;;;0.98;0.98;;;5.00;99.90;;;;;;5039551;28;20375;-76
2023/11/18 01:31:09;;;;;;;0.20;0.20;;;4.90;99.90;;;;;;5046615;28;20044;-76
2023/11/18 01:33:40;;;;;;;1.08;1.08;;;4.80;99.90;;;;;;5034620;28;20029;-75
2023/11/18 01:36:10;;;;;;;0.82;0.82;;;4.80;99.90;;;;;;5039399;28;20390;-76
2023/11/18 01:38:37;;;;;;;0.50;0.50;;;4.70;99.90;;;;;;5007128;28;20049;-75
2023/11/18 01:41:05;;;;;;;0.57;0.57;;;4.70;99.90;;;;;;5049315;28;20036;-76
2023/11/18 01:43:34;;;;;;;0.60;0.60;;;4.60;99.90;;;;;;5046573;28;20040;-77
2023/11/18 01:46:07;;;;;;;0.65;0.47;;;4.60;99.90;;;;;;5041260;28;20033;-76
2023/11/18 01:48:33;;;;;;;0.32;0.32;;;4.50;99.90;;;;;;5036738;28;20040;-75
2023/11/18 01:51:03;;;;;;;0.65;0.65;;;4.40;99.90;;;;;;5043428;28;20045;-75
2023/11/18 01:53:30;;;;;;;0.50;0.50;;;4.30;99.90;;;;;;5045988;28;20036;-76
2023/11/18 01:55:59;;;;;;;2.15;1.98;;;4.20;99.90;;;;;;5044965;28;20041;-75
2023/11/18 01:58:25;;;;;;;6.00;2.72;;;4.30;99.90;;;;;;5022688;28;20041;-75
2023/11/18 02:00:52;;;;;;;1.17;1.17;;;4.20;99.90;;;;;;5022747;28;20402;-75
2023/11/18 02:03:18;;;;;;;0.90;0.90;;;4.20;99.90;;;;;;5028392;28;20033;-75
2023/11/18 02:05:44;;;;;;;5.57;2.67;;;4.10;99.90;;;;;;5043875;28;20040;-75
2023/11/18 02:08:13;;;;;;;1.55;1.45;;;4.10;99.90;;;;;;5027868;28;20045;-76
2023/11/18 02:10:50;;;;;;;1.02;1.00;;;4.00;99.90;;;;;;5048223;28;20482;-75
2023/11/18 02:13:26;;;;;;;3.45;3.05;;;4.00;99.90;;;;;;5043045;28;20048;-75
2023/11/18 02:15:54;;;;;;;0.60;0.60;;;3.90;99.90;;;;;;5033299;28;20044;-75
2023/11/18 02:18:22;;;;;;;0.17;0.17;;;3.80;99.90;;;;;;5035429;28;20473;-76
2023/11/18 02:20:49;;;;;;;0.70;0.70;;;3.80;99.90;;;;;;5036972;28;20030;-75
2023/11/18 02:23:17;;;;;;;0.25;0.25;;;3.80;99.90;;;;;;5042689;28;20033;-75
2023/11/18 02:25:47;;;;;;;8.75;1.63;;;3.70;99.90;;;;;;5020064;28;20505;-76
2023/11/18 02:28:15;;;;;;;0.82;0.82;;;3.60;99.90;;;;;;5024387;28;20053;-76
2023/11/18 02:30:42;;;;;;;3.60;1.90;;;3.50;99.90;;;;;;5027214;28;20459;-75
2023/11/18 02:33:22;;;;;;;1.35;1.23;;;3.40;99.90;;;;;;5035410;28;20045;-76
2023/11/18 02:35:52;;;;;;;0.32;0.32;;;3.30;99.90;;;;;;5045922;28;20029;-76
2023/11/18 02:38:24;;;;;;;1.60;1.42;;;3.30;99.90;;;;;;5039903;28;20113;-74
2023/11/18 02:40:56;;;;;;;0.90;0.80;;;3.20;99.90;;;;;;5037179;28;20033;-74
2023/11/18 02:43:25;;;;;;;0.43;0.43;;;3.20;99.90;;;;;;5038562;28;20033;-74
2023/11/18 02:45:54;;;;;;;6.82;1.85;;;3.20;99.90;;;;;;5034411;28;20366;-74
2023/11/18 02:48:20;;;;;;;1.23;0.50;;;3.30;99.90;;;;;;5044800;28;20033;-74
2023/11/18 02:50:47;;;;;;;1.33;1.23;;;3.10;99.90;;;;;;5038790;28;20029;-74
2023/11/18 02:53:13;;;;;;;1.25;0.82;;;3.20;99.90;;;;;;5035861;28;20021;-74
2023/11/18 02:55:40;;;;;;;1.17;1.17;;;3.20;99.90;;;;;;5033074;28;20058;-74
2023/11/18 02:58:07;;;;;;;0.80;0.70;;;3.10;99.90;;;;;;5043568;28;20052;-74
2023/11/18 03:00:34;;;;;;;0.90;0.55;;;3.10;99.90;;;;;;5041825;28;20033;-74
2023/11/18 03:03:00;;;;;;;17.05;2.47;;;3.10;99.90;;;;;;5037720;28;20037;-74
2023/11/18 03:05:26;;;;;;;1.60;1.15;;;3.00;99.90;;;;;;5033372;28;20049;-74
2023/11/18 03:07:54;;;;;;;0.50;0.50;;;3.00;99.90;;;;;;5039350;28;20041;-74
2023/11/18 03:10:21;;;;;;;1.15;1.00;;;2.90;99.90;;;;;;5030324;28;20045;-74
2023/11/18 03:12:54;;;;;;;0.73;0.73;;;2.80;99.90;;;;;;5026299;28;20052;-74
2023/11/18 03:15:23;;;;;;;0.65;0.63;;;2.80;99.90;;;;;;5034854;28;20041;-74
2023/11/18 03:17:50;;;;;;;1.17;1.13;;;2.80;99.90;;;;;;5040453;28;20037;-74
2023/11/18 03:20:17;;;;;;;0.70;0.65;;;2.70;99.90;;;;;;5039744;28;20040;-75
2023/11/18 03:22:45;;;;;;;2.70;1.70;;;2.70;99.90;;;;;;5039812;28;20045;-74
2023/11/18 03:25:12;;;;;;;0.85;0.85;;;2.70;99.90;;;;;;5040232;28;20048;-74
2023/11/18 03:27:39;;;;;;;1.70;1.08;;;2.60;99.90;;;;;;5043056;28;20038;-74
2023/11/18 03:30:07;;;;;;;0.47;0.47;;;2.60;99.90;;;;;;5042222;28;20034;-74
2023/11/18 03:32:37;;;;;;;0.90;0.90;;;2.70;99.90;;;;;;5036246;28;20049;-79
2023/11/18 03:35:08;;;;;;;0.85;0.85;;;2.70;99.90;;;;;;5033752;28;20041;-75
2023/11/18 03:37:36;;;;;;;0.75;0.75;;;2.70;99.90;;;;;;5034699;28;20065;-75
2023/11/18 03:40:04;;;;;;;2.08;1.98;;;2.70;99.90;;;;;;5045436;28;20490;-74
2023/11/18 03:42:30;;;;;;;5.90;1.55;;;2.60;99.90;;;;;;5023661;28;20471;-74
2023/11/18 03:44:56;;;;;;;0.65;0.65;;;2.80;99.90;;;;;;5034466;28;20033;-74
2023/11/18 03:47:25;;;;;;;2.13;1.48;;;2.80;99.90;;;;;;5034589;28;20060;-74
2023/11/18 03:49:54;;;;;;;3.90;1.02;;;2.80;99.90;;;;;;5041921;28;20029;-74
2023/11/18 03:52:20;;;;;;;1.48;1.42;;;2.80;99.90;;;;;;5032487;28;20052;-74
2023/11/18 03:54:47;;;;;;;0.82;0.40;;;2.80;99.90;;;;;;5039712;28;20029;-76
2023/11/18 03:57:13;;;;;;;2.38;2.17;;;2.90;99.90;;;;;;5034445;28;20049;-77
2023/11/18 03:59:40;;;;;;;0.52;0.52;;;2.90;99.90;;;;;;5041489;28;20049;-74
2023/11/18 04:02:07;;;;;;;1.20;1.13;;;2.90;99.90;;;;;;5039454;28;20049;-74
2023/11/18 04:04:33;;;;;;;0.80;0.77;;;2.90;99.90;;;;;;5041883;28;20034;-74
2023/11/18 04:07:03;;;;;;;0.95;0.75;;;2.90;99.90;;;;;;5036683;28;20033;-76
2023/11/18 04:09:29;;;;;;;1.40;1.30;;;2.90;99.90;;;;;;5033711;28;20379;-74
2023/11/18 04:11:56;;;;;;;0.77;0.73;;;3.00;99.90;;;;;;5018362;28;20053;-74
2023/11/18 04:14:22;;;;;;;1.30;1.23;;;3.00;99.90;;;;;;5040447;28;20037;-75
2023/11/18 04:16:49;;;;;;;2.38;1.38;;;3.00;99.90;;;;;;5037782;28;20052;-74
2023/11/18 04:19:15;;;;;;;0.93;0.93;;;3.00;99.90;;;;;;5031754;28;20049;-74
2023/11/18 04:21:41;;;;;;;0.75;0.75;;;3.00;99.90;;;;;;5044640;28;20033;-74
2023/11/18 04:24:08;;;;;;;0.43;0.43;;;3.00;99.90;;;;;;5036548;28;20029;-76
2023/11/18 04:26:34;;;;;;;1.15;1.02;;;3.10;99.90;;;;;;5038721;28;20033;-76
2023/11/18 04:29:00;;;;;;;1.05;0.98;;;3.30;99.90;;;;;;5035437;28;20025;-76
2023/11/18 04:31:26;;;;;;;2.00;1.33;;;3.30;99.90;;;;;;5041624;28;20029;-76
2023/11/18 04:33:55;;;;;;;0.85;0.85;;;3.40;99.90;;;;;;5029881;28;20045;-76
2023/11/18 04:36:22;;;;;;;0.88;0.65;;;3.40;99.90;;;;;;5032448;28;20049;-76
2023/11/18 04:38:48;;;;;;;1.25;1.23;;;3.40;99.90;;;;;;5029403;28;20398;-76
2023/11/18 04:41:15;;;;;;;1.63;1.52;;;3.40;99.90;;;;;;5001565;28;20068;-76
2023/11/18 04:43:41;;;;;;;1.15;1.13;;;3.40;99.90;;;;;;5026571;28;20041;-76
2023/11/18 04:46:08;;;;;;;2.00;1.88;;;3.40;99.90;;;;;;5044436;28;20029;-76
2023/11/18 04:48:34;;;;;;;0.65;0.65;;;3.50;99.90;;;;;;5037507;28;20052;-74
2023/11/18 04:51:01;;;;;;;2.88;1.63;;;3.50;99.90;;;;;;5015352;28;20033;-75
2023/11/18 04:53:27;;;;;;;1.90;1.80;;;3.50;99.90;;;;;;5020175;28;20032;-75
2023/11/18 04:55:53;;;;;;;1.83;1.50;;;3.60;99.90;;;;;;5041881;28;20036;-76
2023/11/18 04:58:20;;;;;;;0.95;0.95;;;3.60;99.90;;;;;;5040448;28;20045;-75
2023/11/18 05:00:48;;;;;;;1.27;1.17;;;3.70;99.90;;;;;;5037022;28;20041;-75
2023/11/18 05:03:15;;;;;;;0.40;0.40;;;3.80;99.90;;;;;;5036500;28;20025;-75
2023/11/18 05:05:42;;;;;;;0.45;0.45;;;3.80;99.90;;;;;;5037423;28;20030;-75
2023/11/18 05:08:18;;;;;;;2.75;2.55;;;3.90;99.90;;;;;;5039848;28;20364;-75
2023/11/18 05:10:49;;;;;;;3.00;1.67;;;3.80;99.90;;;;;;5036792;28;20046;-75
2023/11/18 05:13:16;;;;;;;1.20;1.10;;;3.80;99.90;;;;;;5042509;28;20033;-75
2023/11/18 05:15:45;;;;;;;1.27;1.02;;;3.80;99.90;;;;;;5035832;28;20040;-74
2023/11/18 05:18:14;;;;;;;0.77;0.77;;;3.80;99.90;;;;;;5036348;28;20052;-75
2023/11/18 05:20:44;;;;;;;1.50;1.30;;;3.70;99.90;;;;;;5038295;28;20036;-78
2023/11/18 05:23:11;;;;;;;1.08;0.98;;;3.70;99.90;;;;;;5035746;28;20048;-75
2023/11/18 05:25:40;;;;;;;1.40;0.98;;;3.70;99.90;;;;;;5033292;28;20045;-75
2023/11/18 05:28:09;;;;;;;0.45;0.40;;;3.70;99.90;;;;;;5040674;28;20052;-74
2023/11/18 05:30:36;;;;;;;1.67;1.58;;;3.70;99.90;;;;;;5035593;28;20034;-74
2023/11/18 05:33:05;;;;;;;2.17;1.08;;;3.70;99.90;;;;;;5035616;28;20036;-76
2023/11/18 05:35:33;;;;;;;1.02;0.90;;;3.70;99.90;;;;;;5037233;28;20044;-77
2023/11/18 05:38:06;;;;;;;2.70;2.45;;;3.80;99.90;;;;;;5044824;28;20038;-74
2023/11/18 05:40:32;;;;;;;1.27;1.08;;;3.80;99.90;;;;;;5041577;28;20025;-74
2023/11/18 05:42:58;;;;;;;1.67;1.52;;;3.90;99.90;;;;;;5034559;28;20037;-75
2023/11/18 05:45:27;;;;;;;2.47;1.85;;;4.00;99.90;;;;;;5033106;28;20045;-75
2023/11/18 05:47:55;;;;;;;5.38;2.75;;;4.20;99.90;;;;;;5040752;28;20049;-75
2023/11/18 05:50:22;;;;;;;4.20;2.28;;;4.40;99.90;;;;;;5042584;28;20044;-75
2023/11/18 05:52:48;;;;;;;3.22;1.65;;;4.50;99.90;;;;;;5038008;28;20025;-75
2023/11/18 05:55:14;;;;;;;3.03;2.67;;;4.50;99.90;;;;;;5032791;28;20044;-75
2023/11/18 05:57:41;;;;;;;6.80;2.38;;;4.60;99.90;;;;;;5045889;28;20037;-75
2023/11/18 06:00:09;;;;;;;4.30;2.50;;;4.70;99.90;;;;;;5039519;28;20037;-75
2023/11/18 06:02:39;;;;;;;3.10;1.83;;;4.70;99.90;;;;;;5046572;28;20041;-74
2023/11/18 06:05:05;;;;;;;2.30;1.45;;;4.80;99.90;;;;;;5033613;28;20387;-75
2023/11/18 06:07:32;;;;;;;2.35;2.10;;;4.80;99.90;;;;;;5032492;28;20400;-75
2023/11/18 06:09:58;;;;;;;2.47;2.05;;;4.80;99.90;;;;;;5036509;28;20034;-75
2023/11/18 06:12:24;;;;;;;1.65;1.55;;;4.90;99.90;;;;;;5046502;28;20042;-76
2023/11/18 06:14:51;;;;;;;2.78;2.58;;;5.00;99.90;;;;;;5042801;28;20040;-74
2023/11/18 06:17:18;;;;;;;3.10;2.90;;;5.00;99.90;;;;;;5019447;28;20041;-74
2023/11/18 06:19:45;;;;;;;1.95;1.85;;;5.00;99.90;;;;;;5043618;28;20028;-74
2023/11/18 06:22:11;;;;;;;3.42;3.17;;;5.00;99.90;;;;;;5033044;28;20044;-74
2023/11/18 06:24:39;;;;;;;2.75;2.55;;;5.00;99.90;;;;;;5021590;28;20048;-73
2023/11/18 06:27:08;;;;;;;3.30;2.50;;;5.00;99.90;;;;;;5037432;28;20450;-75
2023/11/18 06:29:34;;;;;;;5.13;2.65;;;5.00;99.90;;;;;;5043468;28;20033;-76
2023/11/18 06:32:01;;;;;;;1.92;1.63;;;5.00;99.90;;;;;;5048135;28;20060;-76
2023/11/18 06:34:27;;;;;;;10.48;3.15;;;5.00;99.90;;;;;;5039113;28;20040;-76
2023/11/18 06:36:54;;;;;;;4.32;3.90;;;5.00;99.90;;;;;;5037865;28;20511;-76
2023/11/18 06:39:25;;;;;;;3.97;3.67;;;5.00;99.90;;;;;;5038787;28;20037;-76
2023/11/18 06:41:51;;;;;;;5.45;3.88;;;5.00;99.90;;;;;;5030785;28;20045;-76
2023/11/18 06:44:18;;;;;;;5.78;5.20;;;5.00;99.90;;;;;;5034093;28;20045;-75
2023/11/18 06:46:44;;;;;;;9.90;5.63;;;5.10;99.90;;;;;;5040601;28;20034;-75
2023/11/18 06:49:15;;;;;;;4.63;4.15;;;5.10;99.90;;;;;;5035526;28;20470;-74
2023/11/18 06:51:41;;;;;;;4.50;4.15;;;5.10;99.90;;;;;;5042817;28;20048;-75
2023/11/18 06:54:08;;;;;;;5.32;4.57;;;5.10;99.90;;;;;;5043888;28;20040;-73
2023/11/18 06:56:37;;;;;;;4.03;3.63;;;5.10;99.90;;;;;;5042580;28;20029;-74
2023/11/18 06:59:06;;;;;;;5.57;3.97;;;5.10;99.90;;;;;;5036474;28;20026;-74
2023/11/18 07:01:36;;;;;;;4.35;4.05;;;5.20;99.90;;;;;;5025147;28;20033;-74
2023/11/18 07:04:02;;;;;;;4.63;4.18;;;5.20;99.90;;;;;;5028118;28;20037;-75
2023/11/18 07:06:28;;;;;;;4.05;3.75;;;5.20;99.90;;;;;;5043677;28;20060;-75
2023/11/18 07:09:00;;;;;;;5.05;4.43;;;5.30;99.90;;;;;;5038112;28;20053;-75
2023/11/18 07:11:26;;;;;;;4.55;4.05;;;5.30;99.90;;;;;;5034456;28;20049;-74
2023/11/18 07:13:56;;;;;;;6.00;4.88;;;5.30;99.90;;;;;;5037206;28;20056;-75
2023/11/18 07:16:25;;;;;;;9.88;4.78;;;5.30;99.90;;;;;;5040174;28;20033;-74
2023/11/18 07:18:52;;;;;;;3.97;3.67;;;5.40;99.90;;;;;;5040699;28;20034;-75
2023/11/18 07:21:19;;;;;;;6.60;4.97;;;5.40;99.90;;;;;;5037007;28;20025;-74
2023/11/18 07:23:46;;;;;;;8.40;2.92;;;5.40;99.90;;;;;;5043473;28;20056;-75
2023/11/18 07:26:13;;;;;;;7.25;6.57;;;5.40;99.90;;;;;;5042700;28;20029;-75
2023/11/18 07:28:40;;;;;;;6.53;5.93;;;5.50;99.90;;;;;;5037275;28;20387;-74
2023/11/18 07:31:07;;;;;;;7.20;6.22;;;5.40;99.90;;;;;;5036838;28;20037;-74
2023/11/18 07:33:34;;;;;;;4.10;3.70;;;5.50;99.90;;;;;;5039329;28;20493;-74
2023/11/18 07:36:01;;;;;;;5.50;4.03;;;5.40;99.90;;;;;;5043758;28;20036;-74
2023/11/18 07:38:28;;;;;;;2.65;2.33;;;5.40;99.90;;;;;;5041973;28;20043;-74
2023/11/18 07:40:56;;;;;;;4.78;3.22;;;5.40;99.90;;;;;;5030639;28;20042;-74
2023/11/18 07:43:28;;;;;;;5.68;4.38;;;5.40;99.90;;;;;;5036580;28;20032;-75
2023/11/18 07:45:55;;;;;;;5.78;4.03;;;5.50;99.90;;;;;;5027296;28;20025;-74
2023/11/18 07:48:21;;;;;;;7.32;4.32;;;5.40;99.90;;;;;;5042738;28;20053;-75
2023/11/18 07:50:47;;;;;;;4.75;4.05;;;5.50;99.90;;;;;;5039885;28;20025;-74
2023/11/18 07:53:14;;;;;;;6.22;3.35;;;5.50;99.90;;;;;;5034200;28;20030;-74
2023/11/18 07:55:40;;;;;;;6.20;3.58;;;5.50;99.90;;;;;;5038730;28;20039;-75
2023/11/18 07:58:13;;;;;;;1.67;1.55;;;5.50;99.90;;;;;;5040041;28;20052;-75
2023/11/18 08:00:43;;;;;;;4.00;3.65;;;5.50;99.90;;;;;;5039834;28;20041;-74
2023/11/18 08:03:13;;;;;;;1.73;1.63;;;5.60;99.90;;;;;;5037626;28;20236;-74
2023/11/18 08:05:44;;;;;;;3.72;3.42;;;5.60;99.90;;;;;;5040407;28;20045;-73
2023/11/18 08:08:13;;;;;;;2.55;2.35;;;5.70;99.90;;;;;;5036768;28;20248;-74
2023/11/18 08:10:40;;;;;;;4.80;3.88;;;5.70;99.90;;;;;;5030835;28;20052;-74
2023/11/18 08:13:08;;;;;;;5.50;3.53;;;5.70;99.90;;;;;;5037763;28;20478;-74
2023/11/18 08:15:37;;;;;;;3.42;2.45;;;5.70;99.90;;;;;;5036568;28;20060;-74
2023/11/18 08:18:04;;;;;;;8.63;2.20;;;5.70;99.90;;;;;;5043670;28;20046;-74
2023/11/18 08:20:30;;;;;;;4.90;3.67;;;5.80;99.90;;;;;;5036009;28;20025;-75
2023/11/18 08:22:56;;;;;;;1.85;1.67;;;5.80;99.90;;;;;;5038216;28;20044;-74
2023/11/18 08:25:22;;;;;;;2.65;2.45;;;5.90;99.90;;;;;;5038207;28;20362;-74
2023/11/18 08:27:49;;;;;;;2.60;1.95;;;5.90;99.90;;;;;;5039551;28;20385;-74
2023/11/18 08:30:17;;;;;;;6.25;4.38;;;5.90;99.90;;;;;;5030188;28;20029;-74
2023/11/18 08:32:45;;;;;;;2.90;2.70;;;6.00;99.90;;;;;;5039327;28;20029;-74
2023/11/18 08:35:15;;;;;;;4.97;4.47;;;6.00;99.90;;;;;;5027295;28;20269;-75
2023/11/18 08:37:42;;;;;;;7.97;2.58;;;6.00;99.90;;;;;;5049089;28;20041;-73
2023/11/18 08:40:15;;;;;;;1.88;1.77;;;6.10;99.90;;;;;;5047563;28;20026;-76
2023/11/18 08:42:49;;;;;;;1.45;1.33;;;6.20;99.90;;;;;;5039523;28;20033;-76
2023/11/18 08:45:17;;;;;;;4.05;2.47;;;6.30;99.90;;;;;;5041511;28;20044;-75
2023/11/18 08:47:44;;;;;;;1.83;1.67;;;6.40;99.90;;;;;;5040860;28;20033;-76
2023/11/18 08:50:12;;;;;;;1.30;1.20;;;6.50;99.90;;;;;;5049011;28;20049;-77
2023/11/18 08:52:43;;;;;;;1.45;1.35;;;6.50;99.90;;;;;;5045387;28;20040;-76
2023/11/18 08:55:19;;;;;;;2.13;1.95;;;6.70;99.90;;;;;;5038417;28;20037;-76
2023/11/18 08:57:58;;;;;;;2.42;2.20;;;6.80;99.90;;;;;;5034901;28;20044;-76
2023/11/18 09:01:05;;;;;;;2.42;2.22;;;6.90;99.90;;;;;;5038892;28;20056;-75
2023/11/18 09:03:24;;;;;;;3.67;3.28;;;7.00;99.90;;;;;;5038248;28;20049;-76
2023/11/18 09:05:56;;;;;;;4.07;2.45;;;7.10;99.90;;;;;;5037466;28;20041;-75
2023/11/18 09:08:27;;;;;;;2.95;2.65;;;7.10;99.90;;;;;;5037056;28;20045;-75
2023/11/18 09:10:54;;;;;;;1.42;1.33;;;7.10;99.90;;;;;;5035437;28;20116;-78
2023/11/18 09:13:28;;;;;;;5.75;3.97;;;7.20;99.90;;;;;;5036006;28;20422;-76
2023/11/18 09:16:02;;;;;;;3.58;2.15;;;7.30;99.90;;;;;;5039536;28;20048;-75
2023/11/18 09:18:33;;;;;;;3.13;2.50;;;7.30;99.90;;;;;;5035848;28;20056;-75
2023/11/18 09:21:01;;;;;;;2.95;2.75;;;7.40;99.90;;;;;;5035704;28;20475;-76
2023/11/18 09:23:29;;;;;;;2.20;1.35;;;7.50;99.90;;;;;;5045746;28;20033;-73
2023/11/18 09:25:55;;;;;;;2.85;2.13;;;7.50;99.90;;;;;;5034064;28;20037;-73
2023/11/18 09:28:24;;;;;;;3.47;2.00;;;7.60;99.90;;;;;;5037503;28;20040;-73
2023/11/18 09:30:53;;;;;;;2.38;1.70;;;7.70;79.40;;;;;;5033143;28;20040;-74
2023/11/18 09:33:32;;;;;;;2.03;1.63;;;7.70;52.50;;;;;;5044524;28;20037;-74
2023/11/18 09:36:12;;;;;;;4.40;1.75;;;7.70;76.20;;;;;;5042428;28;20029;-74
2023/11/18 09:38:42;;;;;;;1.05;0.93;;;7.80;49.40;;;;;;5042699;28;20049;-74
2023/11/18 09:41:13;;;;;;;3.35;2.92;;;7.80;63.00;;;;;;5017878;28;20037;-74
2023/11/18 09:43:45;;;;;;;2.38;2.03;;;7.80;31.40;;;;;;5041056;28;20056;-74
2023/11/18 09:46:13;;;;;;;2.35;2.03;;;7.90;35.60;;;;;;5041550;28;20040;-74
2023/11/18 09:48:59;;;;;;;2.05;1.10;;;7.90;1.00;;;;;;5040273;28;20044;-74
2023/11/18 09:51:34;;;;;;;5.50;1.88;;;7.90;26.20;;;;;;5033028;28;20033;-72
2023/11/18 09:54:05;;;;;;;1.92;1.75;;;7.90;19.00;;;;;;5040029;28;20044;-72
2023/11/18 09:57:08;;;;;;;2.38;2.15;;;8.10;25.30;;;;;;5041356;28;20052;-72
2023/11/18 10:00:10;;;;;;;1.17;1.08;;;8.00;1.00;;;;;;5042921;28;20057;-73
2023/11/18 10:02:40;;;;;;;1.40;1.23;;;8.00;1.00;;;;;;5044020;28;20029;-73
2023/11/18 10:05:12;;;;;;;1.45;1.35;;;8.00;1.00;;;;;;5040122;28;20037;-74
2023/11/18 10:07:41;;;;;;;1.48;1.27;;;8.00;1.00;;;;;;5043793;28;20395;-73
2023/11/18 10:10:14;;;;;;;2.42;1.45;;;7.90;1.00;;;;;;5025737;28;20044;-73
2023/11/18 10:12:45;;;;;;;1.65;1.48;;;8.00;1.00;;;;;;5039014;28;20054;-73
2023/11/18 10:15:14;;;;;;;0.77;0.77;;;8.00;1.00;;;;;;5027623;28;20045;-73
2023/11/18 10:18:06;;;;;;;1.35;1.25;;;8.00;1.00;;;;;;5037738;28;20042;-73
2023/11/18 10:20:47;;;;;;;0.93;0.85;;;7.90;1.00;;;;;;5041079;28;20037;-73
2023/11/18 10:23:21;;;;;;;1.50;1.40;;;8.00;1.00;;;;;;5040282;28;20235;-73
2023/11/18 10:26:00;;;;;;;0.85;0.85;;;8.00;1.00;;;;;;5042016;28;20386;-74
2023/11/18 10:28:28;;;;;;;2.75;1.15;;;8.00;1.00;;;;;;5042804;28;20042;-73
2023/11/18 10:31:03;;;;;;;2.35;1.00;;;8.00;1.00;;;;;;5035984;28;20030;-73
2023/11/18 10:33:37;;;;;;;0.98;0.95;;;8.10;1.00;;;;;;5038126;28;20045;-75
2023/11/18 10:36:05;;;;;;;1.80;1.40;;;8.00;1.00;;;;;;5041300;28;20048;-76
2023/11/18 10:38:36;;;;;;;1.38;0.95;;;8.10;1.00;;;;;;5043961;28;20052;-75
2023/11/18 10:41:02;;;;;;;2.78;0.55;;;8.10;1.00;;;;;;5043322;28;20040;-74
2023/11/18 10:43:28;;;;;;;1.13;0.95;;;8.20;1.00;;;;;;5040248;28;20059;-74
2023/11/18 10:46:11;;;;;;;3.05;1.23;;;8.30;1.00;;;;;;5035255;28;20048;-75
2023/11/18 10:48:42;;;;;;;0.32;0.32;;;8.20;1.00;;;;;;5042808;28;20041;-74
2023/11/18 10:51:12;;;;;;;;;;;8.20;1.00;;;;;;5041798;28;20398;-74
2023/11/18 10:54:03;;;;;;;1.70;0.75;;;8.20;1.00;;;;;;5039363;28;19913;-73
2023/11/18 10:56:30;;;;;;;0.40;0.40;;;8.20;1.00;;;;;;5033017;28;20364;-74
2023/11/18 10:59:00;;;;;;;1.52;1.27;;;8.20;1.00;;;;;;5037681;28;20033;-74
2023/11/18 11:01:31;;;;;;;0.40;0.40;;;8.30;1.00;;;;;;5040066;28;20029;-75
2023/11/18 11:03:58;;;;;;;1.45;1.20;;;8.30;1.00;;;;;;5039760;28;20041;-75
2023/11/18 11:06:26;;;;;;;0.95;0.85;;;8.40;1.00;;;;;;5039464;28;20442;-74
2023/11/18 11:08:52;;;;;;;0.25;0.25;;;8.40;1.00;;;;;;5038135;28;20033;-74
2023/11/18 11:11:23;;;;;;;0.68;0.68;;;8.40;1.00;;;;;;5036731;28;20092;-74
2023/11/18 11:13:55;;;;;;;1.27;1.02;;;8.40;1.00;;;;;;5041066;28;20030;-74
2023/11/18 11:16:29;;;;;;;1.80;1.05;;;8.40;1.00;;;;;;5039581;28;20037;-75
2023/11/18 11:18:58;;;;;;;2.20;1.10;;;8.30;1.00;;;;;;5020291;28;20045;-74
2023/11/18 11:21:32;;;;;;;0.30;0.30;;;8.30;1.00;;;;;;5052007;28;20395;-74
2023/11/18 11:24:08;;;;;;;0.55;0.55;;;8.30;1.00;;;;;;5040556;28;20026;-75
2023/11/18 11:26:51;;;;;;;0.82;0.82;;;8.20;1.00;;;;;;5046974;28;20517;-74
2023/11/18 11:29:37;;;;;;;2.85;1.50;;;8.40;1.00;;;;;;5039117;28;20041;-74
2023/11/18 11:32:30;;;;;;;1.70;1.60;;;8.60;1.00;;;;;;5043504;28;20383;-75
2023/11/18 11:35:07;;;;;;;1.15;1.05;;;8.50;1.00;;;;;;5038342;28;20041;-73
2023/11/18 11:37:37;;;;;;;0.77;0.63;;;8.40;1.00;;;;;;5037505;28;20038;-74
2023/11/18 11:40:10;;;;;;;1.02;1.02;;;8.40;1.00;;;;;;5027033;28;20029;-73
2023/11/18 11:42:40;;;;;;;1.33;1.23;;;8.40;1.00;;;;;;5043847;28;20343;-74
2023/11/18 11:45:19;;;;;;;2.03;1.77;;;8.40;1.00;;;;;;5042032;28;20394;-74
2023/11/18 11:47:50;;;;;;;1.02;0.93;;;8.30;1.00;;;;;;5039689;28;20068;-73
2023/11/18 11:50:31;;;;;;;0.63;0.63;;;8.20;1.00;;;;;;5032901;28;20466;-72
2023/11/18 11:53:19;;;;;;;2.33;1.65;;;8.20;1.00;;;;;;5041537;28;20425;-73
2023/11/18 11:55:51;;;;;;;2.40;1.08;;;8.20;1.00;;;;;;5042795;28;20029;-72
2023/11/18 11:58:31;;;;;;;1.48;1.00;;;8.10;1.00;;;;;;5042418;28;20041;-72
2023/11/18 12:01:07;;;;;;;1.50;1.40;;;8.10;1.00;;;;;;5044906;28;20037;-73
2023/11/18 12:03:43;;;;;;;0.93;0.90;;;8.10;1.00;;;;;;5042658;28;20025;-73
2023/11/18 12:06:11;;;;;;;1.23;1.13;;;8.10;1.00;;;;;;5029051;28;20033;-72
2023/11/18 12:08:39;;;;;;;1.80;0.68;;;8.10;1.00;;;;;;5044800;28;20036;-73
2023/11/18 12:11:09;;;;;;;3.22;1.10;;;8.20;1.00;;;;;;5045303;28;20828;-73
2023/11/18 12:13:39;;;;;;;1.55;1.13;;;8.20;1.00;;;;;;5048168;28;20372;-73
2023/11/18 12:16:09;;;;;;;1.02;1.02;;;8.10;1.00;;;;;;5039673;28;20033;-75
2023/11/18 12:18:36;;;;;;;1.13;1.02;;;8.10;1.00;;;;;;5038332;28;20032;-74
2023/11/18 12:21:03;;;;;;;0.30;0.30;;;8.10;1.00;;;;;;5003034;28;20056;-74
2023/11/18 12:23:31;;;;;;;0.30;0.30;;;8.10;1.00;;;;;;5037642;28;20033;-73
2023/11/18 12:25:57;;;;;;;1.75;0.75;;;8.10;1.00;;;;;;5045543;28;20049;-73
2023/11/18 12:28:34;;;;;;;0.17;0.17;;;8.00;1.00;;;;;;5034313;28;20037;-73
2023/11/18 12:31:04;;;;;;;5.55;1.58;;;8.00;1.00;;;;;;5036353;28;20530;-73
2023/11/18 12:33:51;;;;;;;;;;;8.00;1.00;;;;;;5035885;28;20038;-73
2023/11/18 12:36:17;;;;;;;12.60;0.75;;;8.00;1.00;;;;;;5036361;28;19912;-73
2023/11/18 12:39:17;;;;;;;1.08;0.98;;;8.00;1.00;;;;;;5042945;28;20048;-72
2023/11/18 12:41:48;;;;;;;0.80;0.80;;;8.00;1.00;;;;;;5033808;28;20030;-72
2023/11/18 12:44:31;;;;;;;;;;;8.00;1.00;;;;;;5034198;28;20040;-72
2023/11/18 12:47:09;;;;;;;1.02;0.40;;;8.00;1.00;;;;;;5041693;28;19916;-72
2023/11/18 12:49:41;;;;;;;0.38;0.38;;;8.00;1.00;;;;;;5039697;28;20387;-72
2023/11/18 12:52:09;;;;;;;0.82;0.60;;;8.00;1.00;;;;;;5037692;28;20040;-72
2023/11/18 12:54:43;;;;;;;0.32;0.32;;;8.10;1.00;;;;;;5032354;28;20036;-71
2023/11/18 12:57:13;;;;;;;0.65;0.65;;;8.10;1.00;;;;;;5039554;28;20406;-72
2023/11/18 12:59:41;;;;;;;1.35;0.82;;;8.00;1.00;;;;;;5041570;28;20044;-72
2023/11/18 13:02:19;;;;;;;2.22;1.23;;;8.10;1.00;;;;;;5039085;28;20033;-76
2023/11/18 13:04:49;;;;;;;0.22;0.22;;;8.20;1.00;;;;;;5040494;28;20044;-72
2023/11/18 13:07:17;;;;;;;0.45;0.45;;;8.20;1.00;;;;;;5022557;28;20041;-72
2023/11/18 13:09:45;;;;;;;0.30;0.22;;;8.30;1.00;;;;;;5037337;28;20033;-73
2023/11/18 13:12:15;;;;;;;1.20;0.90;;;8.30;1.00;;;;;;5038407;28;20402;-73